Alexandria, South Dakota
Current Conditions -  °F | °C
As of 3:53 AM on Friday 28 Nov 2014 (Local Time) from KMHE Reporting Station
Clear Clear  
Wind Chill: 12°   Ceiling: Unl
Heat Index: 22°   Visibility: 10mi
Dew Point: 17°   Wind: 9mph
Humidity: 82%   Direction: 140°SE
Pressure: 29.86"   Gusts: NA
Location:  43.65°N, 97.78°W
Report Text: KMHE 280953Z AUTO 14008KT 10SM CLR M06/M08 A2986 RMK AO2 SLP132 T10561083 $
Loading
Personal Weather Stations






























Interactive Weather Map New forecast layout! Learn more

10-Day Weather Forecast

Advertisements
Track Severe Weather on mobile